Time;durP1;ratioP1;P1;durP2;ratioP2;P2;SDS_P1;SDS_P2;PMS_P1;PMS_P2;Temp;Humidity;BMP_temperature;BMP_pressure;BME280_temperature;BME280_humidity;BME280_pressure;Samples;Min_cycle;Max_cycle;Signal;HPM_P1;HPM_P2
2022/07/07 00:00:53;;;;;;;8.15;5.85;;;;;;;;;;5032775;28;20361;-61
2022/07/07 00:03:19;;;;;;;9.82;5.93;;;;;;;;;;5032307;28;20218;-61
2022/07/07 00:05:44;;;;;;;9.13;5.47;;;;;;;;;;5032009;28;20214;-61
2022/07/07 00:08:09;;;;;;;9.13;5.68;;;;;;;;;;5032895;28;20211;-61
2022/07/07 00:10:35;;;;;;;7.88;5.20;;;;;;;;;;5033319;28;20593;-61
2022/07/07 00:13:00;;;;;;;13.50;6.78;;;;;;;;;;5032579;28;20204;-61
2022/07/07 00:15:26;;;;;;;9.00;5.75;;;;;;;;;;5032563;28;20670;-61
2022/07/07 00:17:51;;;;;;;11.23;6.15;;;;;;;;;;5032619;28;20282;-61
2022/07/07 00:20:16;;;;;;;9.98;6.30;;;;;;;;;;5023634;28;20801;-61
2022/07/07 00:22:42;;;;;;;8.02;5.43;;;;;;;;;;5015918;28;20607;-61
2022/07/07 00:25:07;;;;;;;9.52;6.32;;;;;;;;;;5015371;28;20679;-62
2022/07/07 00:27:33;;;;;;;7.97;5.95;;;;;;;;;;5002577;28;20212;-61
2022/07/07 00:29:58;;;;;;;7.78;5.93;;;;;;;;;;5009563;28;20204;-61
2022/07/07 00:32:24;;;;;;;9.35;6.32;;;;;;;;;;5003280;28;20676;-61
2022/07/07 00:34:49;;;;;;;9.35;6.03;;;;;;;;;;4998449;28;20265;-61
2022/07/07 00:37:14;;;;;;;9.35;6.10;;;;;;;;;;4996678;28;20212;-61
2022/07/07 00:39:39;;;;;;;9.00;5.68;;;;;;;;;;5012648;28;20212;-61
2022/07/07 00:42:05;;;;;;;8.70;5.45;;;;;;;;;;4998400;28;20271;-61
2022/07/07 00:44:30;;;;;;;9.95;5.65;;;;;;;;;;5003344;28;20204;-61
2022/07/07 00:46:55;;;;;;;8.18;5.35;;;;;;;;;;5002342;28;20675;-61
2022/07/07 00:49:21;;;;;;;9.85;5.70;;;;;;;;;;5002966;28;20214;-61
2022/07/07 00:51:46;;;;;;;9.48;6.35;;;;;;;;;;5021956;28;20226;-61
2022/07/07 00:54:11;;;;;;;9.82;6.18;;;;;;;;;;5019483;28;20651;-61
2022/07/07 00:56:37;;;;;;;13.05;7.10;;;;;;;;;;5000628;28;20701;-61
2022/07/07 00:59:03;;;;;;;10.27;5.88;;;;;;;;;;4995036;28;20220;-61
2022/07/07 01:01:29;;;;;;;10.88;6.28;;;;;;;;;;4993498;28;20220;-61
2022/07/07 01:03:54;;;;;;;9.93;6.20;;;;;;;;;;4995684;28;20493;-61
2022/07/07 01:06:19;;;;;;;9.65;6.72;;;;;;;;;;5001189;28;20364;-61
2022/07/07 01:08:45;;;;;;;13.75;6.35;;;;;;;;;;5002131;28;20216;-61
2022/07/07 01:11:10;;;;;;;11.23;6.50;;;;;;;;;;5020891;28;20605;-61
2022/07/07 01:13:35;;;;;;;10.23;6.90;;;;;;;;;;5021669;28;20203;-61
2022/07/07 01:16:01;;;;;;;10.52;6.82;;;;;;;;;;5002193;28;20216;-62
2022/07/07 01:18:26;;;;;;;12.70;7.07;;;;;;;;;;5003157;28;20208;-61
2022/07/07 01:20:51;;;;;;;10.98;6.57;;;;;;;;;;5014901;28;20314;-61
2022/07/07 01:23:16;;;;;;;10.20;6.32;;;;;;;;;;5012138;28;20231;-62
2022/07/07 01:25:42;;;;;;;9.82;6.68;;;;;;;;;;5014070;28;20371;-61
2022/07/07 01:28:07;;;;;;;10.90;6.50;;;;;;;;;;5020000;28;20699;-61
2022/07/07 01:30:32;;;;;;;11.35;6.93;;;;;;;;;;5002530;28;20220;-61
2022/07/07 01:32:57;;;;;;;9.50;6.35;;;;;;;;;;5001658;28;20271;-61
2022/07/07 01:35:23;;;;;;;11.52;6.40;;;;;;;;;;5001842;28;20879;-61
2022/07/07 01:37:49;;;;;;;7.40;5.30;;;;;;;;;;5001453;28;20214;-61
2022/07/07 01:40:14;;;;;;;9.55;5.32;;;;;;;;;;5001958;28;20239;-61
2022/07/07 01:42:39;;;;;;;10.40;6.20;;;;;;;;;;4998248;28;20544;-61
2022/07/07 01:45:05;;;;;;;12.02;6.25;;;;;;;;;;4993714;28;20232;-61
2022/07/07 01:47:31;;;;;;;9.20;5.30;;;;;;;;;;4994631;28;20263;-61
2022/07/07 01:49:56;;;;;;;12.32;5.82;;;;;;;;;;5017169;28;20305;-61
2022/07/07 01:52:21;;;;;;;10.98;6.15;;;;;;;;;;5019867;28;20698;-62
2022/07/07 01:54:47;;;;;;;9.95;6.55;;;;;;;;;;5020982;28;20222;-61
2022/07/07 01:57:12;;;;;;;10.27;6.32;;;;;;;;;;5020961;28;20211;-61
2022/07/07 01:59:37;;;;;;;10.07;6.82;;;;;;;;;;5020570;28;20219;-61
2022/07/07 02:02:03;;;;;;;11.55;6.50;;;;;;;;;;5020720;28;20589;-61
2022/07/07 02:04:28;;;;;;;12.90;7.15;;;;;;;;;;5017413;28;20508;-61
2022/07/07 02:06:53;;;;;;;12.63;6.85;;;;;;;;;;5013701;28;20210;-61
2022/07/07 02:09:19;;;;;;;9.55;6.00;;;;;;;;;;5012950;28;20337;-61
2022/07/07 02:11:44;;;;;;;13.30;6.47;;;;;;;;;;5014273;28;20220;-61
2022/07/07 02:14:09;;;;;;;10.02;6.50;;;;;;;;;;5021089;28;20223;-61
2022/07/07 02:16:36;;;;;;;10.93;6.50;;;;;;;;;;5020877;28;20536;-61
2022/07/07 02:19:02;;;;;;;9.25;5.75;;;;;;;;;;5019880;28;20539;-61
2022/07/07 02:21:28;;;;;;;10.80;6.05;;;;;;;;;;5020931;28;20218;-61
2022/07/07 02:23:53;;;;;;;12.82;5.88;;;;;;;;;;5020468;28;20228;-61
2022/07/07 02:26:19;;;;;;;13.32;6.13;;;;;;;;;;5002603;28;20222;-61
2022/07/07 02:28:44;;;;;;;10.15;6.20;;;;;;;;;;5009881;28;20223;-61
2022/07/07 02:31:09;;;;;;;12.50;6.07;;;;;;;;;;4993287;28;20230;-62
2022/07/07 02:33:35;;;;;;;8.15;5.20;;;;;;;;;;4992935;28;20713;-62
2022/07/07 02:36:00;;;;;;;13.65;5.75;;;;;;;;;;5000340;28;20680;-62
2022/07/07 02:38:26;;;;;;;11.07;5.53;;;;;;;;;;5001075;28;20359;-61
2022/07/07 02:40:51;;;;;;;8.43;4.72;;;;;;;;;;5001091;28;20216;-61
2022/07/07 02:43:17;;;;;;;9.32;4.55;;;;;;;;;;5000863;28;20879;-62
2022/07/07 02:45:42;;;;;;;7.85;4.32;;;;;;;;;;5001501;28;20232;-61
2022/07/07 02:48:08;;;;;;;8.90;4.50;;;;;;;;;;4999995;28;20213;-61
2022/07/07 02:50:33;;;;;;;8.57;4.50;;;;;;;;;;4996312;28;20679;-61
2022/07/07 02:52:58;;;;;;;8.02;4.32;;;;;;;;;;4993692;28;20209;-61
2022/07/07 02:55:24;;;;;;;8.48;4.07;;;;;;;;;;4992175;28;20212;-61
2022/07/07 02:57:50;;;;;;;7.78;3.90;;;;;;;;;;4998624;28;20578;-61
2022/07/07 03:00:16;;;;;;;7.03;2.88;;;;;;;;;;5000987;28;20295;-61
2022/07/07 03:02:41;;;;;;;6.30;2.75;;;;;;;;;;5000385;28;20239;-61
2022/07/07 03:05:07;;;;;;;5.72;2.42;;;;;;;;;;5000275;28;20246;-61
2022/07/07 03:07:32;;;;;;;4.50;2.35;;;;;;;;;;5001157;28;20220;-61
2022/07/07 03:09:57;;;;;;;5.05;2.35;;;;;;;;;;5000230;28;20239;-61
2022/07/07 03:12:23;;;;;;;4.93;2.00;;;;;;;;;;4998582;28;20692;-61
2022/07/07 03:14:48;;;;;;;3.85;2.03;;;;;;;;;;4993314;28;20209;-61
2022/07/07 03:17:13;;;;;;;2.90;1.80;;;;;;;;;;4995505;28;20227;-61
2022/07/07 03:19:39;;;;;;;3.13;1.80;;;;;;;;;;4998293;28;20327;-61
2022/07/07 03:22:04;;;;;;;5.38;2.65;;;;;;;;;;5003137;28;20263;-61
2022/07/07 03:24:31;;;;;;;3.45;1.90;;;;;;;;;;5004815;28;20255;-61
2022/07/07 03:26:56;;;;;;;5.13;1.77;;;;;;;;;;5004971;28;20207;-62
2022/07/07 03:29:21;;;;;;;4.70;1.75;;;;;;;;;;5012115;28;20224;-61
2022/07/07 03:31:47;;;;;;;3.85;1.55;;;;;;;;;;5004338;28;20231;-61
2022/07/07 03:34:12;;;;;;;3.72;1.58;;;;;;;;;;5003829;28;20743;-61
2022/07/07 03:36:37;;;;;;;3.65;2.08;;;;;;;;;;4996149;28;20631;-61
2022/07/07 03:39:03;;;;;;;4.85;1.75;;;;;;;;;;4996361;28;20534;-61
2022/07/07 03:41:28;;;;;;;6.10;2.20;;;;;;;;;;4997112;28;20220;-61
2022/07/07 03:43:53;;;;;;;5.20;2.20;;;;;;;;;;5003500;28;20219;-61
2022/07/07 03:46:19;;;;;;;4.50;1.92;;;;;;;;;;5004068;28;20753;-61
2022/07/07 03:48:44;;;;;;;3.78;2.05;;;;;;;;;;5004066;28;20606;-61
2022/07/07 03:51:09;;;;;;;3.60;2.20;;;;;;;;;;5002442;28;20710;-61
2022/07/07 03:53:34;;;;;;;4.78;2.00;;;;;;;;;;5003722;28;20213;-61
2022/07/07 03:56:00;;;;;;;3.83;2.10;;;;;;;;;;5004420;28;20267;-61
2022/07/07 03:58:25;;;;;;;5.47;2.10;;;;;;;;;;4998296;28;20812;-61
2022/07/07 04:00:50;;;;;;;3.65;2.20;;;;;;;;;;4996260;28;20224;-64
2022/07/07 04:03:16;;;;;;;6.43;2.20;;;;;;;;;;4995032;28;20220;-64
2022/07/07 04:05:41;;;;;;;5.07;2.00;;;;;;;;;;4999705;28;20208;-63
2022/07/07 04:08:07;;;;;;;5.32;2.45;;;;;;;;;;5002529;28;20208;-63
2022/07/07 04:10:33;;;;;;;4.38;2.20;;;;;;;;;;5003973;28;20220;-63
2022/07/07 04:12:58;;;;;;;6.00;2.20;;;;;;;;;;5002785;28;20215;-63
2022/07/07 04:15:23;;;;;;;6.90;2.50;;;;;;;;;;5003102;28;20224;-63
2022/07/07 04:17:49;;;;;;;5.82;2.40;;;;;;;;;;5003849;28;20660;-63
2022/07/07 04:20:14;;;;;;;7.47;2.38;;;;;;;;;;5000084;28;20216;-63
2022/07/07 04:22:39;;;;;;;3.90;2.35;;;;;;;;;;4996159;28;20605;-63
2022/07/07 04:25:05;;;;;;;5.53;2.50;;;;;;;;;;4994583;28;20303;-63
2022/07/07 04:27:30;;;;;;;5.85;2.70;;;;;;;;;;4996363;28;20282;-63
2022/07/07 04:29:56;;;;;;;6.85;2.33;;;;;;;;;;5003403;28;20591;-63
2022/07/07 04:32:21;;;;;;;5.18;2.10;;;;;;;;;;5002070;28;20233;-63
2022/07/07 04:34:46;;;;;;;8.32;2.35;;;;;;;;;;5004916;28;20275;-63
2022/07/07 04:37:11;;;;;;;5.22;2.10;;;;;;;;;;5017850;28;20679;-66
2022/07/07 04:39:37;;;;;;;4.63;1.90;;;;;;;;;;5011947;28;20287;-64
2022/07/07 04:42:02;;;;;;;5.00;1.77;;;;;;;;;;5046378;28;20509;-64
2022/07/07 04:44:28;;;;;;;3.50;1.40;;;;;;;;;;5052270;28;20215;-64
2022/07/07 04:46:53;;;;;;;2.05;1.02;;;;;;;;;;5044311;28;20219;-63
2022/07/07 04:49:18;;;;;;;4.22;1.20;;;;;;;;;;5042444;28;20761;-66
2022/07/07 04:51:44;;;;;;;4.63;1.27;;;;;;;;;;5040808;28;20220;-64
2022/07/07 04:54:09;;;;;;;3.28;1.00;;;;;;;;;;5029463;28;20204;-63
2022/07/07 04:56:35;;;;;;;3.45;1.08;;;;;;;;;;5034505;28;20282;-63
2022/07/07 04:59:00;;;;;;;4.10;1.02;;;;;;;;;;5042032;28;20223;-64
2022/07/07 05:01:25;;;;;;;3.05;1.00;;;;;;;;;;5041174;28;20224;-63
2022/07/07 05:03:50;;;;;;;3.90;0.95;;;;;;;;;;5040432;28;20619;-64
2022/07/07 05:06:16;;;;;;;5.03;1.10;;;;;;;;;;5040821;28;20299;-64
2022/07/07 05:08:41;;;;;;;4.47;1.27;;;;;;;;;;5040802;28;20208;-63
2022/07/07 05:11:06;;;;;;;6.03;1.20;;;;;;;;;;5040220;28;20231;-63
2022/07/07 05:13:32;;;;;;;3.78;1.10;;;;;;;;;;5042249;28;20209;-65
2022/07/07 05:15:57;;;;;;;4.55;1.20;;;;;;;;;;5040381;28;20306;-63
2022/07/07 05:18:22;;;;;;;4.32;1.30;;;;;;;;;;5040523;28;20211;-63
2022/07/07 05:20:48;;;;;;;5.50;1.40;;;;;;;;;;5041978;28;20302;-64
2022/07/07 05:23:13;;;;;;;4.72;1.30;;;;;;;;;;5038706;28;20246;-65
2022/07/07 05:25:38;;;;;;;5.38;1.30;;;;;;;;;;5044165;28;20211;-64
2022/07/07 05:28:04;;;;;;;5.80;1.30;;;;;;;;;;5050968;28;20237;-65
2022/07/07 05:30:29;;;;;;;3.63;1.08;;;;;;;;;;5045954;28;20223;-64
2022/07/07 05:32:55;;;;;;;4.13;1.20;;;;;;;;;;5023472;28;20633;-64
2022/07/07 05:35:20;;;;;;;3.70;1.00;;;;;;;;;;5031919;28;20218;-65
2022/07/07 05:37:46;;;;;;;6.15;1.27;;;;;;;;;;5035338;28;20212;-65
2022/07/07 05:40:12;;;;;;;3.50;1.00;;;;;;;;;;5037392;28;20504;-65
2022/07/07 05:42:37;;;;;;;5.78;1.25;;;;;;;;;;5050331;28;20251;-65
2022/07/07 05:45:02;;;;;;;7.47;1.23;;;;;;;;;;5050467;28;20685;-65
2022/07/07 05:47:28;;;;;;;7.53;1.10;;;;;;;;;;5050911;28;20215;-65
2022/07/07 05:49:54;;;;;;;5.07;1.13;;;;;;;;;;5049589;28;20211;-65
2022/07/07 05:52:19;;;;;;;9.18;1.35;;;;;;;;;;5050351;28;20227;-65
2022/07/07 05:54:44;;;;;;;8.90;1.50;;;;;;;;;;5050975;28;20218;-64
2022/07/07 05:57:09;;;;;;;7.15;1.30;;;;;;;;;;5050136;28;20214;-65
2022/07/07 05:59:35;;;;;;;6.40;1.20;;;;;;;;;;5051234;28;20304;-64
2022/07/07 06:02:00;;;;;;;8.23;1.30;;;;;;;;;;5051131;28;20694;-62
2022/07/07 06:04:26;;;;;;;7.40;1.20;;;;;;;;;;5041608;28;20214;-64
2022/07/07 06:06:52;;;;;;;8.25;1.20;;;;;;;;;;5050624;28;20211;-64
2022/07/07 06:09:18;;;;;;;9.95;2.40;;;;;;;;;;5050149;28;20221;-64
2022/07/07 06:11:43;;;;;;;10.57;1.85;;;;;;;;;;5050252;28;20336;-64
2022/07/07 06:14:08;;;;;;;7.53;1.55;;;;;;;;;;5050250;28;20234;-64
2022/07/07 06:16:41;;;;;;;11.30;1.50;;;;;;;;;;5050434;28;20203;-64
2022/07/07 06:19:07;;;;;;;12.13;1.73;;;;;;;;;;5049846;28;20225;-64
2022/07/07 06:21:32;;;;;;;10.85;1.70;;;;;;;;;;5050227;28;20662;-64
2022/07/07 06:23:58;;;;;;;7.90;1.90;;;;;;;;;;5050905;28;20287;-64
2022/07/07 06:26:23;;;;;;;8.65;2.00;;;;;;;;;;5031558;28;20214;-64
2022/07/07 06:28:48;;;;;;;8.77;1.60;;;;;;;;;;5050850;28;20586;-64
2022/07/07 06:31:14;;;;;;;7.95;1.50;;;;;;;;;;5039929;28;20228;-64
2022/07/07 06:33:39;;;;;;;7.32;1.00;;;;;;;;;;5037951;28;20762;-64
2022/07/07 06:36:04;;;;;;;8.15;1.10;;;;;;;;;;5029661;28;20215;-65
2022/07/07 06:38:30;;;;;;;6.38;1.52;;;;;;;;;;5030339;28;20624;-64
2022/07/07 06:41:01;;;;;;;6.78;1.63;;;;;;;;;;5029634;28;20610;-64
2022/07/07 06:43:26;;;;;;;7.20;1.33;;;;;;;;;;5050402;28;20211;-64
2022/07/07 06:45:51;;;;;;;6.88;1.33;;;;;;;;;;5049750;28;20608;-64
2022/07/07 06:48:17;;;;;;;6.57;1.20;;;;;;;;;;5049703;28;20217;-64
2022/07/07 06:50:42;;;;;;;5.43;1.20;;;;;;;;;;5049778;28;20314;-64
2022/07/07 06:53:07;;;;;;;4.28;0.88;;;;;;;;;;5053117;28;20215;-64
2022/07/07 06:55:33;;;;;;;10.07;1.40;;;;;;;;;;5054256;28;20230;-64
2022/07/07 06:57:58;;;;;;;5.40;1.20;;;;;;;;;;5054932;28;20234;-64
2022/07/07 07:00:24;;;;;;;8.95;1.40;;;;;;;;;;5049764;28;20709;-64
2022/07/07 07:02:49;;;;;;;5.68;0.90;;;;;;;;;;5049576;28;20219;-64
2022/07/07 07:05:14;;;;;;;7.47;1.52;;;;;;;;;;5053398;28;20215;-64
2022/07/07 07:07:40;;;;;;;8.02;1.33;;;;;;;;;;5052534;28;20203;-64
2022/07/07 07:10:05;;;;;;;8.43;1.15;;;;;;;;;;5053588;28;20211;-65
2022/07/07 07:12:30;;;;;;;5.95;1.08;;;;;;;;;;5053867;28;20227;-64
2022/07/07 07:14:56;;;;;;;6.00;1.30;;;;;;;;;;5053274;28;20226;-64
2022/07/07 07:17:21;;;;;;;6.80;1.20;;;;;;;;;;5053092;28;20276;-65
2022/07/07 07:19:47;;;;;;;6.63;1.42;;;;;;;;;;5053700;28;20564;-64
2022/07/07 07:22:12;;;;;;;6.60;1.40;;;;;;;;;;5052480;28;20215;-64
2022/07/07 07:24:37;;;;;;;6.30;1.17;;;;;;;;;;5053889;28;20589;-64
2022/07/07 07:27:03;;;;;;;5.90;1.10;;;;;;;;;;5053223;28;20215;-65
2022/07/07 07:29:28;;;;;;;5.93;1.20;;;;;;;;;;5052900;28;20207;-64
2022/07/07 07:31:53;;;;;;;5.88;1.02;;;;;;;;;;5038128;28;20251;-64
2022/07/07 07:34:18;;;;;;;4.55;0.88;;;;;;;;;;5041440;28;20208;-64
2022/07/07 07:36:44;;;;;;;7.95;1.63;;;;;;;;;;5032967;28;20212;-64
2022/07/07 07:39:09;;;;;;;5.28;0.80;;;;;;;;;;5033044;28;20220;-64
2022/07/07 07:41:34;;;;;;;3.90;0.80;;;;;;;;;;5033412;28;20208;-63
2022/07/07 07:44:00;;;;;;;4.10;0.98;;;;;;;;;;5033139;28;20207;-64
2022/07/07 07:46:25;;;;;;;4.78;0.95;;;;;;;;;;5033233;28;20206;-64
2022/07/07 07:48:50;;;;;;;7.75;1.30;;;;;;;;;;5033624;28;20591;-64
2022/07/07 07:51:16;;;;;;;4.88;1.00;;;;;;;;;;5032327;28;20570;-64
2022/07/07 07:53:41;;;;;;;3.38;0.85;;;;;;;;;;5033168;28;20311;-64
2022/07/07 07:56:06;;;;;;;5.85;0.80;;;;;;;;;;5032262;28;20220;-64
2022/07/07 07:58:31;;;;;;;3.45;0.93;;;;;;;;;;5033538;28;20222;-64
2022/07/07 08:00:57;;;;;;;5.55;1.08;;;;;;;;;;5033228;28;20294;-63
2022/07/07 08:03:22;;;;;;;4.50;0.70;;;;;;;;;;5031119;28;20212;-64
2022/07/07 08:05:49;;;;;;;2.92;0.50;;;;;;;;;;5032861;28;20262;-64
2022/07/07 08:08:15;;;;;;;2.22;0.50;;;;;;;;;;5032821;28;20235;-64
2022/07/07 08:10:40;;;;;;;1.20;0.60;;;;;;;;;;5024407;28;20732;-63
2022/07/07 08:13:06;;;;;;;3.85;0.82;;;;;;;;;;5027772;28;20223;-64
2022/07/07 08:15:31;;;;;;;2.72;0.50;;;;;;;;;;5023665;28;20663;-64
2022/07/07 08:17:58;;;;;;;3.30;0.73;;;;;;;;;;5020108;28;20213;-63
2022/07/07 08:20:23;;;;;;;3.20;0.55;;;;;;;;;;5012857;28;20255;-63
2022/07/07 08:22:50;;;;;;;3.78;0.55;;;;;;;;;;5013302;28;20217;-63
2022/07/07 08:25:15;;;;;;;3.58;0.70;;;;;;;;;;5011986;28;20617;-64
2022/07/07 08:27:41;;;;;;;3.10;0.50;;;;;;;;;;5014259;28;20244;-64
2022/07/07 08:30:08;;;;;;;2.50;0.63;;;;;;;;;;5023423;28;20204;-63
2022/07/07 08:32:33;;;;;;;4.32;0.77;;;;;;;;;;5017819;28;20228;-63
2022/07/07 08:34:59;;;;;;;4.93;0.80;;;;;;;;;;5013311;28;20243;-64
2022/07/07 08:37:24;;;;;;;3.03;0.70;;;;;;;;;;5012462;28;20211;-66
2022/07/07 08:39:49;;;;;;;3.70;0.60;;;;;;;;;;5012314;28;20217;-64
2022/07/07 08:42:15;;;;;;;3.75;0.90;;;;;;;;;;5012249;28;20212;-64
2022/07/07 08:44:41;;;;;;;6.45;1.05;;;;;;;;;;5031327;28;20216;-64
2022/07/07 08:47:06;;;;;;;5.90;0.90;;;;;;;;;;5031358;28;20219;-64
2022/07/07 08:49:31;;;;;;;4.20;0.95;;;;;;;;;;5032602;28;20216;-65
2022/07/07 08:51:57;;;;;;;3.47;0.70;;;;;;;;;;5032507;28;20634;-63
2022/07/07 08:54:22;;;;;;;7.03;0.85;;;;;;;;;;5031262;28;20282;-64
2022/07/07 08:56:48;;;;;;;5.20;0.82;;;;;;;;;;5032215;28;20220;-64
2022/07/07 08:59:13;;;;;;;9.05;1.63;;;;;;;;;;5032260;28;20219;-64
2022/07/07 09:01:39;;;;;;;4.18;0.80;;;;;;;;;;5031566;28;20254;-64
2022/07/07 09:04:04;;;;;;;4.80;1.00;;;;;;;;;;5031871;28;20228;-64
2022/07/07 09:06:30;;;;;;;4.35;0.90;;;;;;;;;;5031480;28;20215;-64
2022/07/07 09:08:56;;;;;;;6.07;1.10;;;;;;;;;;5032233;28;20204;-64
2022/07/07 09:11:25;;;;;;;4.53;0.80;;;;;;;;;;5021822;28;20236;-63
2022/07/07 09:13:51;;;;;;;4.80;0.63;;;;;;;;;;5025130;28;20204;-65
2022/07/07 09:16:16;;;;;;;4.88;0.90;;;;;;;;;;5028152;28;20281;-63
2022/07/07 09:18:43;;;;;;;3.63;0.80;;;;;;;;;;5031909;28;20216;-63
2022/07/07 09:21:26;;;;;;;4.60;0.82;;;;;;;;;;5030803;28;20269;-63
2022/07/07 09:23:53;;;;;;;3.47;0.50;;;;;;;;;;5031729;28;20216;-63
2022/07/07 09:26:32;;;;;;;3.22;0.60;;;;;;;;;;5031166;28;20225;-63
2022/07/07 09:28:57;;;;;;;2.30;0.45;;;;;;;;;;5031242;28;20211;-63
2022/07/07 09:31:23;;;;;;;3.33;0.47;;;;;;;;;;5031209;28;20235;-63
2022/07/07 09:33:48;;;;;;;2.35;0.47;;;;;;;;;;5031538;28;20556;-63
2022/07/07 09:39:03;;;;;;;1.83;0.25;;;;;;;;;;5031646;28;20222;-63
2022/07/07 09:41:28;;;;;;;5.20;0.60;;;;;;;;;;5028329;28;20294;-62
2022/07/07 09:43:54;;;;;;;2.58;0.50;;;;;;;;;;5030926;28;20205;-63
2022/07/07 09:46:23;;;;;;;3.03;0.55;;;;;;;;;;5031164;28;20218;-63
2022/07/07 09:48:50;;;;;;;4.00;1.00;;;;;;;;;;5030646;28;20242;-64
2022/07/07 09:51:16;;;;;;;2.17;0.50;;;;;;;;;;5027865;28;20224;-63
2022/07/07 09:53:52;;;;;;;1.95;0.60;;;;;;;;;;5031890;28;20249;-63
2022/07/07 09:56:19;;;;;;;3.97;0.40;;;;;;;;;;5029949;28;20721;-63
2022/07/07 09:58:45;;;;;;;2.22;0.50;;;;;;;;;;5031344;28;20204;-63
2022/07/07 10:01:11;;;;;;;3.85;0.60;;;;;;;;;;5030652;28;20717;-63
2022/07/07 10:03:36;;;;;;;1.85;0.40;;;;;;;;;;5030810;28;20222;-63
2022/07/07 10:06:02;;;;;;;2.72;0.35;;;;;;;;;;5031173;28;20212;-63
2022/07/07 10:08:29;;;;;;;4.07;0.45;;;;;;;;;;5013957;28;20659;-63
2022/07/07 10:10:54;;;;;;;2.10;0.40;;;;;;;;;;5012564;28;20309;-63
2022/07/07 10:13:19;;;;;;;4.15;0.60;;;;;;;;;;5030432;28;22119;-64
2022/07/07 10:15:45;;;;;;;2.55;0.60;;;;;;;;;;5031038;28;20212;-63
2022/07/07 10:18:10;;;;;;;7.78;0.98;;;;;;;;;;5012292;28;20206;-63
2022/07/07 10:20:36;;;;;;;3.15;0.40;;;;;;;;;;5013595;28;20266;-63
2022/07/07 10:23:01;;;;;;;2.80;0.70;;;;;;;;;;5030981;28;20245;-63
2022/07/07 10:25:26;;;;;;;2.97;0.47;;;;;;;;;;5029864;28;20216;-63
2022/07/07 10:27:53;;;;;;;3.83;0.68;;;;;;;;;;5030748;28;20207;-63
2022/07/07 10:30:27;;;;;;;1.80;0.57;;;;;;;;;;5030383;28;20212;-63
2022/07/07 10:32:53;;;;;;;2.83;0.75;;;;;;;;;;5030246;28;20659;-63
2022/07/07 10:35:18;;;;;;;3.65;0.70;;;;;;;;;;5013060;28;20226;-63
2022/07/07 10:37:45;;;;;;;6.13;0.70;;;;;;;;;;5031300;28;20295;-63
2022/07/07 10:40:13;;;;;;;5.95;0.70;;;;;;;;;;5029600;28;20666;-63
2022/07/07 10:42:38;;;;;;;3.78;0.85;;;;;;;;;;5030839;28;20219;-62
2022/07/07 10:45:04;;;;;;;4.47;0.68;;;;;;;;;;5029426;28;20631;-64
2022/07/07 10:47:30;;;;;;;2.35;0.65;;;;;;;;;;5030751;28;20208;-63
2022/07/07 10:49:56;;;;;;;2.80;0.77;;;;;;;;;;5030978;28;20203;-63
2022/07/07 10:52:22;;;;;;;5.13;0.80;;;;;;;;;;5029922;28;20270;-64
2022/07/07 10:54:49;;;;;;;2.85;0.80;;;;;;;;;;5030537;28;20207;-64
2022/07/07 10:57:18;;;;;;;3.60;0.90;;;;;;;;;;5030136;28;20218;-64
2022/07/07 11:00:04;;;;;;;3.13;0.85;;;;;;;;;;5029945;28;20572;-64
2022/07/07 11:02:31;;;;;;;3.25;0.80;;;;;;;;;;5030550;28;20227;-63
2022/07/07 11:05:01;;;;;;;1.88;0.55;;;;;;;;;;5030974;28;20204;-63
2022/07/07 11:07:28;;;;;;;1.80;0.50;;;;;;;;;;5029492;28;20204;-63
2022/07/07 11:09:59;;;;;;;4.43;0.70;;;;;;;;;;5028656;28;20207;-63
2022/07/07 11:12:33;;;;;;;5.53;1.05;;;;;;;;;;5028968;28;20311;-64
2022/07/07 11:15:14;;;;;;;3.88;0.68;;;;;;;;;;5030098;28;20674;-63
2022/07/07 11:17:39;;;;;;;2.38;0.63;;;;;;;;;;5030480;28;20219;-63
2022/07/07 11:20:08;;;;;;;2.65;0.70;;;;;;;;;;5029098;28;20215;-64
2022/07/07 11:22:42;;;;;;;6.78;0.90;;;;;;;;;;5030625;28;20436;-63
2022/07/07 11:25:08;;;;;;;2.28;0.82;;;;;;;;;;5029867;28;20214;-64
2022/07/07 11:27:33;;;;;;;4.45;1.02;;;;;;;;;;5030226;28;20219;-63
2022/07/07 11:29:58;;;;;;;3.58;0.93;;;;;;;;;;5030476;28;20203;-63
2022/07/07 11:32:24;;;;;;;3.47;0.77;;;;;;;;;;5030047;28;20220;-63
2022/07/07 11:34:49;;;;;;;6.72;0.90;;;;;;;;;;5011913;28;20299;-64
2022/07/07 11:37:17;;;;;;;3.55;0.70;;;;;;;;;;5029391;28;20239;-63
2022/07/07 11:39:42;;;;;;;3.72;0.70;;;;;;;;;;5033229;28;20208;-63
2022/07/07 11:42:08;;;;;;;3.55;0.85;;;;;;;;;;5033113;28;20335;-64
2022/07/07 11:44:33;;;;;;;5.43;1.10;;;;;;;;;;5034092;28;20253;-63
2022/07/07 11:46:58;;;;;;;4.35;0.90;;;;;;;;;;5033719;28;20261;-63
2022/07/07 11:49:25;;;;;;;3.67;0.80;;;;;;;;;;5032391;28;20243;-63
2022/07/07 11:51:50;;;;;;;2.90;0.70;;;;;;;;;;5016012;28;20215;-62
2022/07/07 11:54:16;;;;;;;2.75;0.90;;;;;;;;;;5015254;28;20208;-63
2022/07/07 11:56:41;;;;;;;3.50;0.75;;;;;;;;;;5015324;28;20204;-63
2022/07/07 11:59:07;;;;;;;5.63;1.00;;;;;;;;;;5033341;28;20212;-63
2022/07/07 12:01:33;;;;;;;4.53;1.00;;;;;;;;;;5012355;28;20239;-63
2022/07/07 12:04:02;;;;;;;4.63;0.80;;;;;;;;;;5013125;28;20237;-63
2022/07/07 12:06:28;;;;;;;4.30;1.00;;;;;;;;;;5032765;28;20207;-63
2022/07/07 12:08:54;;;;;;;2.65;0.90;;;;;;;;;;4990777;28;20224;-63
2022/07/07 12:11:20;;;;;;;2.55;0.75;;;;;;;;;;4991576;28;20343;-63
2022/07/07 12:13:46;;;;;;;4.10;1.00;;;;;;;;;;4994368;28;20209;-61
2022/07/07 12:16:12;;;;;;;3.60;0.85;;;;;;;;;;4993287;28;20232;-64
2022/07/07 12:18:38;;;;;;;1.75;0.55;;;;;;;;;;4993595;28;20209;-63
2022/07/07 12:21:05;;;;;;;3.58;0.90;;;;;;;;;;4993257;28;20287;-64
2022/07/07 12:23:34;;;;;;;3.45;0.70;;;;;;;;;;4992966;28;20628;-63
2022/07/07 12:26:07;;;;;;;3.55;0.90;;;;;;;;;;4994116;28;20211;-63
2022/07/07 12:28:33;;;;;;;4.00;0.88;;;;;;;;;;4986777;28;20209;-63
2022/07/07 12:30:58;;;;;;;3.38;1.00;;;;;;;;;;5004786;28;20231;-63
2022/07/07 12:33:27;;;;;;;4.75;0.98;;;;;;;;;;5012881;28;20209;-63
2022/07/07 12:35:54;;;;;;;6.25;0.85;;;;;;;;;;5013195;28;20243;-63
2022/07/07 12:38:33;;;;;;;4.72;1.20;;;;;;;;;;5010276;28;20684;-63
2022/07/07 12:41:00;;;;;;;6.82;1.50;;;;;;;;;;5010506;28;20671;-63
2022/07/07 12:43:30;;;;;;;6.93;1.70;;;;;;;;;;4983157;28;20264;-64
2022/07/07 12:46:03;;;;;;;10.93;1.60;;;;;;;;;;4992847;28;20209;-66
2022/07/07 12:48:28;;;;;;;8.82;1.67;;;;;;;;;;5012126;28;20219;-65
2022/07/07 12:51:01;;;;;;;8.57;1.60;;;;;;;;;;5012858;28;20221;-63
2022/07/07 12:53:27;;;;;;;11.23;1.92;;;;;;;;;;4997486;28;20554;-64
2022/07/07 12:55:52;;;;;;;9.18;1.80;;;;;;;;;;5009923;28;20230;-64
2022/07/07 12:58:18;;;;;;;8.38;1.70;;;;;;;;;;5011711;28;20248;-64
2022/07/07 13:00:58;;;;;;;13.07;2.03;;;;;;;;;;5013373;28;20303;-65
2022/07/07 13:03:23;;;;;;;9.30;1.90;;;;;;;;;;5051862;28;20203;-64
2022/07/07 13:05:49;;;;;;;6.85;1.40;;;;;;;;;;5051690;28;20207;-64
2022/07/07 13:08:14;;;;;;;10.55;1.80;;;;;;;;;;5051566;28;20215;-63
2022/07/07 13:10:39;;;;;;;9.13;1.90;;;;;;;;;;5052159;28;20234;-64
2022/07/07 13:13:05;;;;;;;10.32;1.73;;;;;;;;;;5051191;28;20215;-64
2022/07/07 13:15:30;;;;;;;7.72;1.60;;;;;;;;;;5052148;28;20214;-64
2022/07/07 13:17:56;;;;;;;12.23;1.65;;;;;;;;;;5051950;28;20206;-64
2022/07/07 13:20:21;;;;;;;11.60;1.35;;;;;;;;;;5051004;28;20286;-65
2022/07/07 13:22:46;;;;;;;11.15;1.65;;;;;;;;;;5049372;28;20528;-64
2022/07/07 13:25:12;;;;;;;10.32;2.00;;;;;;;;;;5050771;28;20211;-64
2022/07/07 13:27:37;;;;;;;9.10;1.70;;;;;;;;;;5050932;28;20213;-64
2022/07/07 13:30:03;;;;;;;9.68;1.80;;;;;;;;;;5051371;28;20214;-64
2022/07/07 13:32:28;;;;;;;11.75;1.65;;;;;;;;;;5049966;28;20277;-64
2022/07/07 13:34:54;;;;;;;7.65;1.60;;;;;;;;;;5051229;28;20210;-64
2022/07/07 13:37:19;;;;;;;9.45;1.70;;;;;;;;;;5051482;28;20268;-63
2022/07/07 13:39:44;;;;;;;7.40;1.50;;;;;;;;;;5051474;28;20638;-65
2022/07/07 13:42:10;;;;;;;9.07;1.55;;;;;;;;;;5050232;28;20215;-64
2022/07/07 13:44:36;;;;;;;9.65;1.60;;;;;;;;;;5051615;28;20746;-64
2022/07/07 13:47:01;;;;;;;10.32;1.65;;;;;;;;;;5050747;28;20219;-64
2022/07/07 13:49:26;;;;;;;9.10;1.73;;;;;;;;;;5050741;28;20199;-64
2022/07/07 13:51:52;;;;;;;10.15;1.90;;;;;;;;;;5051520;28;20223;-64
2022/07/07 13:54:18;;;;;;;9.85;1.58;;;;;;;;;;5051080;28;20302;-64
2022/07/07 13:56:44;;;;;;;15.45;2.25;;;;;;;;;;5049164;28;20297;-64
2022/07/07 13:59:10;;;;;;;10.48;1.60;;;;;;;;;;5049575;28;20215;-64
2022/07/07 14:01:38;;;;;;;9.52;1.70;;;;;;;;;;5049968;28;20235;-64
2022/07/07 14:04:03;;;;;;;9.07;1.65;;;;;;;;;;5046640;28;20279;-64
2022/07/07 14:06:30;;;;;;;10.88;2.20;;;;;;;;;;5039933;28;20298;-63
2022/07/07 14:08:55;;;;;;;9.93;1.60;;;;;;;;;;5044666;28;20199;-64
2022/07/07 14:11:21;;;;;;;11.38;1.98;;;;;;;;;;5050358;28;20273;-65
2022/07/07 14:13:46;;;;;;;10.80;1.75;;;;;;;;;;5051079;28;20211;-64
2022/07/07 14:16:11;;;;;;;7.30;1.23;;;;;;;;;;5049846;28;20219;-65
2022/07/07 14:18:37;;;;;;;10.88;1.70;;;;;;;;;;5033176;28;20689;-65
2022/07/07 14:21:02;;;;;;;7.40;1.85;;;;;;;;;;5050435;28;20215;-65
2022/07/07 14:23:28;;;;;;;9.50;1.70;;;;;;;;;;5050478;28;20199;-65
2022/07/07 14:25:54;;;;;;;10.70;1.65;;;;;;;;;;5050755;28;20207;-65
2022/07/07 14:28:20;;;;;;;10.50;1.85;;;;;;;;;;5050293;28;20214;-65
2022/07/07 14:30:46;;;;;;;11.07;2.13;;;;;;;;;;5050003;28;20206;-65
2022/07/07 14:33:11;;;;;;;13.07;2.13;;;;;;;;;;5050363;28;20214;-65
2022/07/07 14:35:37;;;;;;;9.15;1.95;;;;;;;;;;5051198;28;20301;-65